Time;durP1;ratioP1;P1;durP2;ratioP2;P2;SDS_P1;SDS_P2;PMS_P1;PMS_P2;Temp;Humidity;BMP_temperature;BMP_pressure;BME280_temperature;BME280_humidity;BME280_pressure;Samples;Min_cycle;Max_cycle;Signal;HPM_P1;HPM_P2
2021/04/29 00:02:17;;;;;;;2.10;1.90;;;12.50;99.90;;;;;;5094074;28;20634;-70
2021/04/29 00:04:43;;;;;;;2.20;1.90;;;12.60;99.90;;;;;;5080294;28;20626;-69
2021/04/29 00:07:09;;;;;;;2.30;1.47;;;12.70;99.90;;;;;;5093857;28;20273;-69
2021/04/29 00:09:36;;;;;;;1.70;1.60;;;12.60;99.90;;;;;;5093748;28;20173;-70
2021/04/29 00:12:03;;;;;;;1.80;1.50;;;12.50;99.90;;;;;;5093966;28;20179;-70
2021/04/29 00:14:29;;;;;;;2.97;1.63;;;12.30;99.90;;;;;;5093707;28;20590;-70
2021/04/29 00:16:55;;;;;;;1.87;1.50;;;12.10;99.90;;;;;;5093990;28;20242;-69
2021/04/29 00:19:21;;;;;;;1.60;1.50;;;12.10;99.90;;;;;;5093397;28;20654;-70
2021/04/29 00:21:46;;;;;;;1.40;1.30;;;12.10;99.90;;;;;;5093719;28;20165;-69
2021/04/29 00:24:13;;;;;;;1.60;1.50;;;12.10;99.90;;;;;;5093481;28;20176;-68
2021/04/29 00:26:39;;;;;;;1.30;1.20;;;12.00;99.90;;;;;;5093464;28;20671;-69
2021/04/29 00:29:04;;;;;;;2.03;1.70;;;12.00;99.90;;;;;;5093899;28;20225;-69
2021/04/29 00:31:30;;;;;;;2.03;1.43;;;12.00;99.90;;;;;;5094076;28;20642;-69
2021/04/29 00:33:57;;;;;;;1.87;1.77;;;12.00;99.90;;;;;;5093740;28;20165;-68
2021/04/29 00:36:23;;;;;;;2.27;2.03;;;12.00;99.90;;;;;;5093312;28;20211;-69
2021/04/29 00:38:48;;;;;;;2.07;1.87;;;12.00;99.90;;;;;;5093630;28;20195;-69
2021/04/29 00:41:15;;;;;;;2.47;1.93;;;12.10;99.90;;;;;;5093475;28;20200;-68
2021/04/29 00:43:40;;;;;;;2.60;2.40;;;12.00;99.90;;;;;;5075271;28;20169;-70
2021/04/29 00:46:12;;;;;;;2.87;2.67;;;12.00;99.90;;;;;;5093221;28;20281;-69
2021/04/29 00:48:40;;;;;;;2.47;2.00;;;12.20;99.90;;;;;;5093338;28;20263;-70
2021/04/29 00:51:05;;;;;;;2.20;2.00;;;12.20;99.90;;;;;;5093471;28;20161;-69
2021/04/29 00:53:37;;;;;;;2.20;2.10;;;12.30;99.90;;;;;;5093491;28;20171;-70
2021/04/29 00:56:04;;;;;;;1.60;1.50;;;12.40;99.90;;;;;;5093369;28;20195;-70
2021/04/29 00:58:30;;;;;;;1.60;1.50;;;12.40;99.90;;;;;;5093193;28;20249;-70
2021/04/29 01:00:56;;;;;;;1.80;1.70;;;12.40;99.90;;;;;;5093232;28;20642;-68
2021/04/29 01:03:45;;;;;;;2.30;2.10;;;12.40;99.90;;;;;;5092881;28;20183;-70
2021/04/29 01:06:15;;;;;;;2.07;1.97;;;12.20;99.90;;;;;;5046381;28;20208;-69
2021/04/29 01:08:53;;;;;;;2.37;2.27;;;12.30;99.90;;;;;;5093433;28;20181;-69
2021/04/29 01:11:28;;;;;;;2.10;2.00;;;12.20;99.90;;;;;;5098844;28;20179;-69
2021/04/29 01:13:56;;;;;;;2.20;2.10;;;12.20;99.90;;;;;;5084696;28;20204;-69
2021/04/29 01:16:24;;;;;;;2.20;2.00;;;12.00;99.90;;;;;;5097382;28;20196;-70
2021/04/29 01:18:53;;;;;;;2.30;1.70;;;11.90;99.90;;;;;;5097168;28;20192;-69
2021/04/29 01:21:21;;;;;;;3.67;2.30;;;11.80;99.90;;;;;;5102727;28;20179;-68
2021/04/29 01:23:50;;;;;;;2.33;2.10;;;11.70;99.90;;;;;;5104484;28;20578;-69
2021/04/29 01:26:36;;;;;;;3.47;2.20;;;11.70;99.90;;;;;;5079112;28;20592;-70
2021/04/29 01:29:08;;;;;;;3.03;2.27;;;11.70;99.90;;;;;;5089926;28;20188;-69
2021/04/29 01:31:37;;;;;;;2.30;2.10;;;11.60;99.90;;;;;;5096956;28;20180;-69
2021/04/29 01:34:05;;;;;;;4.70;2.60;;;11.60;99.90;;;;;;5102876;28;20172;-70
2021/04/29 01:36:31;;;;;;;2.80;2.53;;;11.50;99.90;;;;;;5101887;28;20619;-70
2021/04/29 01:39:04;;;;;;;3.10;2.07;;;11.60;99.90;;;;;;5096786;28;20184;-69
2021/04/29 01:41:30;;;;;;;2.43;2.20;;;11.50;99.90;;;;;;5097180;28;20180;-69
2021/04/29 01:43:57;;;;;;;3.00;2.27;;;11.40;99.90;;;;;;5082729;28;20184;-70
2021/04/29 01:46:24;;;;;;;2.60;2.13;;;11.30;99.90;;;;;;5108860;28;20319;-70
2021/04/29 01:48:51;;;;;;;2.87;2.50;;;11.30;99.90;;;;;;5102701;28;20274;-69
2021/04/29 01:51:17;;;;;;;3.63;2.37;;;11.20;99.90;;;;;;5106782;28;20316;-70
2021/04/29 01:53:43;;;;;;;2.47;2.13;;;11.10;99.90;;;;;;5096651;28;20176;-69
2021/04/29 01:56:09;;;;;;;2.73;2.27;;;11.20;99.90;;;;;;5086578;28;20210;-68
2021/04/29 01:58:35;;;;;;;3.03;2.73;;;11.10;99.90;;;;;;5101866;28;20181;-70
2021/04/29 02:01:01;;;;;;;2.80;2.60;;;11.00;99.90;;;;;;5096624;28;20233;-70
2021/04/29 02:03:27;;;;;;;3.10;2.80;;;10.90;99.90;;;;;;5096335;28;20538;-70
2021/04/29 02:05:55;;;;;;;2.83;2.50;;;10.90;99.90;;;;;;5096091;28;20195;-69
2021/04/29 02:08:21;;;;;;;3.20;2.90;;;10.90;99.90;;;;;;5096622;28;20189;-70
2021/04/29 02:10:52;;;;;;;2.67;2.40;;;10.90;99.90;;;;;;5087248;28;20188;-69
2021/04/29 02:13:18;;;;;;;3.40;2.80;;;10.80;99.90;;;;;;5096260;28;20212;-70
2021/04/29 02:15:55;;;;;;;3.53;2.80;;;10.80;99.90;;;;;;5096273;28;20564;-69
2021/04/29 02:18:23;;;;;;;2.47;2.27;;;10.70;99.90;;;;;;5096280;28;20172;-69
2021/04/29 02:20:50;;;;;;;2.40;2.20;;;10.80;99.90;;;;;;5110587;28;20175;-71
2021/04/29 02:23:23;;;;;;;2.03;1.83;;;10.80;99.90;;;;;;5096142;28;20196;-69
2021/04/29 02:25:52;;;;;;;3.70;2.00;;;10.70;99.90;;;;;;5095883;28;20230;-70
2021/04/29 02:28:18;;;;;;;2.47;2.10;;;10.70;99.90;;;;;;5094054;28;20176;-71
2021/04/29 02:30:46;;;;;;;2.50;2.20;;;10.70;99.90;;;;;;5086141;28;20245;-69
2021/04/29 02:33:12;;;;;;;2.97;2.27;;;10.70;99.90;;;;;;5089411;28;20195;-71
2021/04/29 02:35:38;;;;;;;1.87;1.73;;;10.70;99.90;;;;;;5093674;28;20653;-69
2021/04/29 02:38:04;;;;;;;2.47;2.23;;;10.70;99.90;;;;;;5094016;28;20207;-71
2021/04/29 02:40:30;;;;;;;1.90;1.80;;;10.70;99.90;;;;;;5077520;28;20562;-68
2021/04/29 02:42:56;;;;;;;2.00;1.90;;;10.70;99.90;;;;;;5077506;28;20184;-68
2021/04/29 02:45:23;;;;;;;1.87;1.70;;;10.70;99.90;;;;;;5094706;28;20624;-70
2021/04/29 02:47:51;;;;;;;2.63;1.80;;;10.60;99.90;;;;;;5095348;28;20207;-70
2021/04/29 02:50:20;;;;;;;2.60;1.87;;;10.60;99.90;;;;;;5095348;28;20177;-69
2021/04/29 02:52:48;;;;;;;3.03;2.53;;;10.60;99.90;;;;;;5095734;28;20254;-70
2021/04/29 02:55:14;;;;;;;5.60;2.67;;;10.50;99.90;;;;;;5077095;28;20180;-68
2021/04/29 02:57:40;;;;;;;3.37;2.27;;;10.50;99.90;;;;;;5095327;28;20681;-70
2021/04/29 03:00:10;;;;;;;2.20;2.00;;;10.50;99.90;;;;;;5095463;28;20248;-69
2021/04/29 03:02:39;;;;;;;2.43;2.10;;;10.50;99.90;;;;;;5094940;28;20191;-70
2021/04/29 03:05:06;;;;;;;2.13;2.00;;;10.50;99.90;;;;;;5095298;28;20198;-69
2021/04/29 03:07:31;;;;;;;2.30;2.10;;;10.40;99.90;;;;;;5095095;28;20195;-70
2021/04/29 03:09:57;;;;;;;2.33;2.07;;;10.40;99.90;;;;;;5095119;28;20194;-70
2021/04/29 03:12:23;;;;;;;5.03;1.90;;;10.40;99.90;;;;;;5094927;28;20251;-70
2021/04/29 03:14:54;;;;;;;2.33;2.13;;;10.40;99.90;;;;;;5095046;28;20176;-70
2021/04/29 03:17:20;;;;;;;2.20;1.93;;;10.30;99.90;;;;;;5094800;28;20204;-70
2021/04/29 03:19:46;;;;;;;2.63;2.20;;;10.30;99.90;;;;;;5094791;28;20183;-72
2021/04/29 03:22:11;;;;;;;2.10;2.00;;;10.30;99.90;;;;;;5076724;28;20171;-69
2021/04/29 03:24:37;;;;;;;2.90;2.03;;;10.30;99.90;;;;;;5094977;28;20200;-70
2021/04/29 03:27:04;;;;;;;2.87;1.90;;;10.30;99.90;;;;;;5094703;28;20657;-69
2021/04/29 03:29:30;;;;;;;2.40;2.20;;;10.30;99.90;;;;;;5091750;28;20186;-71
2021/04/29 03:31:56;;;;;;;2.30;2.10;;;10.30;99.90;;;;;;5076434;28;20172;-71
2021/04/29 03:34:22;;;;;;;2.33;2.13;;;10.20;99.90;;;;;;5091056;28;20536;-70
2021/04/29 03:36:48;;;;;;;2.40;2.10;;;10.20;99.90;;;;;;5108588;28;20215;-69
2021/04/29 03:39:14;;;;;;;2.90;2.60;;;10.20;99.90;;;;;;5090662;28;20249;-70
2021/04/29 03:41:39;;;;;;;2.13;2.03;;;10.20;99.90;;;;;;5095723;28;20643;-69
2021/04/29 03:44:05;;;;;;;3.30;2.40;;;10.20;99.90;;;;;;5078536;28;20179;-69
2021/04/29 03:46:31;;;;;;;2.50;2.30;;;10.20;99.90;;;;;;5089198;28;20211;-70
2021/04/29 03:48:57;;;;;;;3.50;2.57;;;10.20;99.90;;;;;;5094509;28;20180;-69
2021/04/29 03:51:23;;;;;;;2.40;2.20;;;10.30;99.90;;;;;;5093880;28;20577;-70
2021/04/29 03:53:49;;;;;;;2.50;2.30;;;10.20;99.90;;;;;;5093150;28;20187;-70
2021/04/29 03:56:15;;;;;;;2.73;2.53;;;10.20;99.90;;;;;;5094267;28;20204;-68
2021/04/29 03:58:41;;;;;;;2.77;2.40;;;10.20;99.90;;;;;;5081091;28;20184;-69
2021/04/29 04:01:06;;;;;;;2.47;2.27;;;10.30;99.90;;;;;;5085954;28;20237;-70
2021/04/29 04:03:32;;;;;;;4.33;2.60;;;10.20;99.90;;;;;;5077332;28;20176;-69
2021/04/29 04:05:59;;;;;;;3.17;2.23;;;10.40;99.90;;;;;;5082254;28;20215;-69
2021/04/29 04:08:24;;;;;;;3.97;2.20;;;10.40;99.90;;;;;;5078810;28;20190;-71
2021/04/29 04:10:50;;;;;;;2.90;2.10;;;10.30;99.90;;;;;;5078737;28;20184;-69
2021/04/29 04:13:17;;;;;;;2.57;2.37;;;10.30;99.90;;;;;;5092941;28;20529;-70
2021/04/29 04:15:44;;;;;;;4.47;2.60;;;10.40;99.90;;;;;;5092045;28;20183;-68
2021/04/29 04:18:09;;;;;;;3.50;2.47;;;10.30;99.90;;;;;;5086196;28;20608;-69
2021/04/29 04:20:35;;;;;;;4.00;3.10;;;10.30;99.90;;;;;;5106426;28;20268;-70
2021/04/29 04:23:01;;;;;;;2.70;2.50;;;10.30;99.90;;;;;;5075499;28;20295;-71
2021/04/29 04:25:27;;;;;;;3.00;2.70;;;10.30;99.90;;;;;;5093299;28;20203;-68
2021/04/29 04:27:53;;;;;;;3.30;2.63;;;10.30;99.90;;;;;;5075491;28;20208;-70
2021/04/29 04:30:20;;;;;;;4.47;3.10;;;10.20;99.90;;;;;;5075490;28;20221;-71
2021/04/29 04:32:45;;;;;;;4.53;3.47;;;10.20;99.90;;;;;;5092550;28;20187;-69
2021/04/29 04:35:12;;;;;;;4.30;3.17;;;10.20;99.90;;;;;;5093133;28;20225;-69
2021/04/29 04:37:37;;;;;;;3.20;2.90;;;10.20;99.90;;;;;;5105706;22;20223;-75
2021/04/29 04:40:04;;;;;;;3.97;3.40;;;10.20;99.90;;;;;;5070917;28;20238;-75
2021/04/29 04:42:30;;;;;;;3.57;3.27;;;10.20;99.90;;;;;;5074349;28;20676;-74
2021/04/29 04:44:56;;;;;;;3.50;3.20;;;10.10;99.90;;;;;;5069469;28;20188;-75
2021/04/29 04:47:21;;;;;;;3.90;3.47;;;10.20;99.90;;;;;;5084419;28;20229;-72
2021/04/29 04:49:47;;;;;;;3.33;3.07;;;10.20;99.90;;;;;;5072615;28;20652;-73
2021/04/29 04:52:13;;;;;;;7.60;3.93;;;10.10;99.90;;;;;;5072520;28;20251;-74
2021/04/29 04:54:39;;;;;;;3.63;3.27;;;10.10;99.90;;;;;;5071714;28;20659;-73
2021/04/29 04:57:05;;;;;;;4.23;3.30;;;10.10;99.90;;;;;;5071135;28;20222;-73
2021/04/29 04:59:30;;;;;;;4.00;3.60;;;10.00;99.90;;;;;;5059052;28;20287;-73
2021/04/29 05:01:57;;;;;;;6.23;3.70;;;10.00;99.90;;;;;;5058506;28;20185;-73
2021/04/29 05:04:27;;;;;;;8.27;3.83;;;10.00;99.90;;;;;;5058850;28;20182;-73
2021/04/29 05:06:54;;;;;;;4.63;3.73;;;10.00;99.90;;;;;;5070774;28;20202;-75
2021/04/29 05:09:20;;;;;;;7.30;3.47;;;10.00;99.90;;;;;;5054621;28;20175;-74
2021/04/29 05:11:45;;;;;;;5.53;3.73;;;10.10;99.90;;;;;;5054147;28;20185;-74
2021/04/29 05:14:11;;;;;;;6.43;4.00;;;10.10;99.90;;;;;;5058154;28;20686;-74
2021/04/29 05:16:37;;;;;;;5.77;4.20;;;10.10;99.90;;;;;;5069556;28;20542;-73
2021/04/29 05:19:03;;;;;;;4.67;4.03;;;10.10;99.90;;;;;;5072697;28;20180;-74
2021/04/29 05:21:29;;;;;;;4.63;4.03;;;10.10;99.90;;;;;;5071805;28;20169;-73
2021/04/29 05:23:55;;;;;;;4.23;3.93;;;10.00;99.90;;;;;;5060542;28;20182;-73
2021/04/29 05:26:20;;;;;;;5.77;4.40;;;10.10;99.90;;;;;;5069605;28;20577;-73
2021/04/29 05:28:46;;;;;;;5.90;4.90;;;10.20;99.90;;;;;;5072593;28;20200;-73
2021/04/29 05:31:12;;;;;;;5.03;4.53;;;10.10;99.90;;;;;;5065522;28;20259;-74
2021/04/29 05:33:37;;;;;;;4.97;4.40;;;10.30;99.90;;;;;;5071052;28;20180;-74
2021/04/29 05:36:03;;;;;;;7.63;4.60;;;10.30;99.90;;;;;;5072510;28;20612;-74
2021/04/29 05:38:29;;;;;;;7.10;4.53;;;10.30;99.90;;;;;;5072216;28;20261;-74
2021/04/29 05:40:54;;;;;;;7.60;5.13;;;10.40;99.90;;;;;;5071628;28;20550;-74
2021/04/29 05:43:20;;;;;;;6.73;4.77;;;10.40;99.90;;;;;;5057541;28;20173;-79
2021/04/29 05:45:46;;;;;;;6.10;4.50;;;10.50;99.90;;;;;;5073187;28;20217;-79
2021/04/29 05:48:11;;;;;;;4.73;4.33;;;10.70;99.90;;;;;;5076690;28;20201;-79
2021/04/29 05:50:37;;;;;;;5.67;5.10;;;10.80;99.90;;;;;;5078737;28;20620;-79
2021/04/29 05:53:03;;;;;;;7.43;5.67;;;10.80;99.90;;;;;;5061079;28;20184;-79
2021/04/29 05:55:29;;;;;;;5.73;5.10;;;10.90;99.90;;;;;;5078413;28;20611;-79
2021/04/29 05:57:59;;;;;;;6.10;5.50;;;10.80;99.90;;;;;;5082404;28;20205;-78
2021/04/29 06:00:25;;;;;;;6.20;5.70;;;10.80;99.90;;;;;;5081794;28;20181;-79
2021/04/29 06:02:51;;;;;;;6.87;5.70;;;10.80;99.90;;;;;;5082861;28;20188;-79
2021/04/29 06:05:17;;;;;;;7.93;5.13;;;10.90;99.90;;;;;;5081962;28;20568;-80
2021/04/29 06:07:43;;;;;;;6.77;5.83;;;10.90;99.90;;;;;;5082452;28;20600;-79
2021/04/29 06:10:09;;;;;;;6.33;5.73;;;10.80;99.90;;;;;;5080847;28;20580;-79
2021/04/29 06:12:35;;;;;;;6.33;5.77;;;10.80;99.90;;;;;;5080622;28;20582;-79
2021/04/29 06:15:01;;;;;;;6.50;5.37;;;10.80;99.90;;;;;;5081741;28;20182;-79
2021/04/29 06:17:27;;;;;;;7.00;6.20;;;10.80;99.90;;;;;;5081812;28;20209;-80
2021/04/29 06:19:52;;;;;;;6.57;5.93;;;10.60;99.90;;;;;;5079052;28;20271;-79
2021/04/29 06:22:18;;;;;;;6.80;5.73;;;10.50;99.90;;;;;;5079010;28;20668;-79
2021/04/29 06:24:44;;;;;;;7.00;6.30;;;10.40;99.90;;;;;;5081514;28;20197;-78
2021/04/29 06:27:10;;;;;;;6.93;5.97;;;10.50;99.90;;;;;;5080896;28;20284;-79
2021/04/29 06:29:36;;;;;;;6.30;5.70;;;10.50;99.90;;;;;;5077330;28;20184;-80
2021/04/29 06:32:02;;;;;;;7.27;6.00;;;10.60;99.90;;;;;;5084235;28;20169;-80
2021/04/29 06:34:28;;;;;;;7.13;5.60;;;10.60;99.90;;;;;;5083802;28;20263;-79
2021/04/29 06:36:53;;;;;;;6.23;5.63;;;10.50;99.90;;;;;;5084209;28;20240;-80
2021/04/29 06:39:20;;;;;;;6.80;6.20;;;10.60;99.90;;;;;;5083647;28;20178;-78
2021/04/29 06:41:46;;;;;;;6.67;6.13;;;10.70;99.90;;;;;;5082872;28;20184;-80
2021/04/29 06:44:13;;;;;;;6.97;6.27;;;10.70;99.90;;;;;;5083422;28;20172;-80
2021/04/29 06:46:40;;;;;;;8.13;5.67;;;10.80;99.90;;;;;;5084124;28;20208;-79
2021/04/29 06:49:06;;;;;;;6.07;5.47;;;10.80;99.90;;;;;;5085067;28;20177;-79
2021/04/29 06:51:32;;;;;;;6.43;5.67;;;11.00;99.90;;;;;;5082892;28;20183;-80
2021/04/29 06:53:58;;;;;;;6.50;5.90;;;11.10;99.90;;;;;;5077311;28;20213;-80
2021/04/29 06:56:24;;;;;;;8.77;6.00;;;11.10;99.90;;;;;;5077505;28;20185;-79
2021/04/29 06:58:51;;;;;;;6.63;6.03;;;11.20;99.90;;;;;;5082710;28;20212;-80
2021/04/29 07:01:17;;;;;;;7.23;6.27;;;11.30;99.90;;;;;;5082120;28;20181;-80
2021/04/29 07:03:42;;;;;;;6.93;6.20;;;11.30;99.90;;;;;;5064487;28;20193;-79
2021/04/29 07:06:09;;;;;;;6.73;5.83;;;11.40;99.90;;;;;;5082425;28;20208;-79
2021/04/29 07:08:34;;;;;;;6.53;5.50;;;11.40;99.90;;;;;;5081093;28;20199;-79
2021/04/29 07:11:00;;;;;;;6.17;5.67;;;11.30;99.90;;;;;;5082559;28;20601;-80
2021/04/29 07:13:26;;;;;;;7.07;5.63;;;11.20;99.90;;;;;;5083642;28;20260;-79
2021/04/29 07:15:51;;;;;;;6.40;5.63;;;11.10;99.90;;;;;;5064817;28;20188;-77
2021/04/29 07:18:19;;;;;;;6.47;5.87;;;11.10;99.90;;;;;;5083501;28;20210;-79
2021/04/29 07:20:45;;;;;;;6.83;5.57;;;11.20;99.90;;;;;;5082572;28;20307;-79
2021/04/29 07:23:11;;;;;;;5.97;5.43;;;11.30;99.90;;;;;;5083494;28;20172;-79
2021/04/29 07:25:37;;;;;;;6.70;4.80;;;11.40;99.90;;;;;;5082801;28;20189;-79
2021/04/29 07:28:04;;;;;;;5.93;5.40;;;11.40;99.90;;;;;;5083194;28;20585;-79
2021/04/29 07:30:31;;;;;;;5.97;5.40;;;11.50;99.90;;;;;;5082069;28;20169;-79
2021/04/29 07:32:57;;;;;;;6.10;5.50;;;11.50;99.90;;;;;;5082494;28;20241;-79
2021/04/29 07:35:24;;;;;;;6.00;5.43;;;11.50;99.90;;;;;;5082862;28;20168;-79
2021/04/29 07:37:50;;;;;;;6.97;5.50;;;11.60;99.90;;;;;;5081421;28;20219;-79
2021/04/29 07:40:16;;;;;;;8.40;5.40;;;11.80;99.90;;;;;;5081827;28;20162;-80
2021/04/29 07:42:42;;;;;;;5.33;4.83;;;11.80;99.90;;;;;;5082542;28;20177;-79
2021/04/29 07:45:09;;;;;;;6.33;5.77;;;11.50;99.90;;;;;;5082083;28;20238;-80
2021/04/29 07:47:35;;;;;;;7.27;5.77;;;11.50;99.90;;;;;;5082457;28;20193;-79
2021/04/29 07:50:00;;;;;;;7.27;5.20;;;11.50;99.90;;;;;;5081413;28;20169;-79
2021/04/29 07:52:26;;;;;;;6.20;5.60;;;11.60;99.90;;;;;;5081342;28;20173;-79
2021/04/29 07:54:52;;;;;;;5.83;5.17;;;11.60;99.90;;;;;;5079673;28;20196;-79
2021/04/29 07:57:19;;;;;;;6.70;5.90;;;11.70;99.90;;;;;;5080800;28;20242;-80
2021/04/29 07:59:45;;;;;;;7.47;5.07;;;11.80;99.90;;;;;;5080128;28;20188;-79
2021/04/29 08:02:12;;;;;;;6.50;5.83;;;11.80;99.90;;;;;;5079916;28;20580;-79
2021/04/29 08:04:37;;;;;;;5.87;5.27;;;11.90;99.90;;;;;;5080039;28;20185;-79
2021/04/29 08:07:03;;;;;;;5.57;5.17;;;11.90;99.90;;;;;;5080099;28;20194;-79
2021/04/29 08:09:28;;;;;;;4.90;4.50;;;11.80;99.90;;;;;;5079146;28;20165;-77
2021/04/29 08:11:54;;;;;;;6.37;5.53;;;11.90;99.90;;;;;;5081617;28;20173;-78
2021/04/29 08:14:20;;;;;;;5.97;4.87;;;12.00;99.90;;;;;;5082269;28;20224;-79
2021/04/29 08:16:45;;;;;;;5.23;4.63;;;12.00;99.90;;;;;;5082662;28;20196;-79
2021/04/29 08:19:11;;;;;;;8.70;5.00;;;11.90;99.90;;;;;;5084017;28;20649;-78
2021/04/29 08:21:37;;;;;;;7.03;5.30;;;11.90;99.90;;;;;;5082502;28;20195;-79
2021/04/29 08:24:03;;;;;;;5.13;4.73;;;12.00;99.90;;;;;;5083909;28;20191;-79
2021/04/29 08:26:29;;;;;;;6.23;5.10;;;11.90;99.90;;;;;;5079493;28;20205;-78
2021/04/29 08:28:55;;;;;;;5.23;4.83;;;12.00;99.90;;;;;;5083263;28;20173;-79
2021/04/29 08:31:21;;;;;;;5.37;4.97;;;11.90;99.90;;;;;;5080862;28;20226;-79
2021/04/29 08:33:46;;;;;;;5.50;5.00;;;12.00;99.90;;;;;;5082106;28;20182;-79
2021/04/29 08:36:12;;;;;;;5.60;4.87;;;12.10;99.90;;;;;;5083252;28;20205;-79
2021/04/29 08:38:38;;;;;;;6.00;5.40;;;12.10;99.90;;;;;;5082359;28;20216;-80
2021/04/29 08:41:04;;;;;;;5.87;4.80;;;12.00;99.90;;;;;;5082931;28;20192;-79
2021/04/29 08:43:29;;;;;;;8.87;5.53;;;12.10;99.90;;;;;;5082836;28;20263;-79
2021/04/29 08:45:56;;;;;;;6.07;5.57;;;12.10;99.90;;;;;;5082220;28;20217;-78
2021/04/29 08:48:24;;;;;;;7.03;5.20;;;12.30;99.90;;;;;;5082067;28;20193;-79
2021/04/29 08:50:50;;;;;;;5.33;4.93;;;12.40;99.90;;;;;;5082637;28;20546;-79
2021/04/29 08:53:16;;;;;;;5.87;4.93;;;12.50;99.90;;;;;;5082363;28;20243;-79
2021/04/29 08:55:42;;;;;;;6.93;5.87;;;12.50;99.90;;;;;;5082657;28;20202;-79
2021/04/29 08:58:09;;;;;;;6.20;5.60;;;12.50;99.90;;;;;;5082172;28;20207;-79
2021/04/29 09:00:35;;;;;;;5.73;5.27;;;12.30;99.90;;;;;;5081882;28;20183;-79
2021/04/29 09:03:01;;;;;;;6.20;5.60;;;12.30;99.90;;;;;;5063507;28;20188;-79
2021/04/29 09:05:30;;;;;;;6.20;5.60;;;12.30;99.90;;;;;;5062708;28;20204;-79
2021/04/29 09:08:06;;;;;;;7.30;5.37;;;12.40;99.90;;;;;;5071026;28;20256;-78
2021/04/29 09:10:40;;;;;;;5.87;5.37;;;12.50;99.90;;;;;;5080636;28;20165;-79
2021/04/29 09:13:18;;;;;;;6.57;5.20;;;12.50;99.90;;;;;;5074122;28;20230;-80
2021/04/29 09:15:44;;;;;;;6.03;5.43;;;12.50;99.90;;;;;;5065327;28;20655;-79
2021/04/29 09:18:15;;;;;;;7.93;5.10;;;12.50;99.90;;;;;;5070800;28;20204;-79
2021/04/29 09:21:19;;;;;;;6.80;5.33;;;12.60;99.90;;;;;;5080764;28;20181;-79
2021/04/29 09:23:51;;;;;;;6.37;5.83;;;12.60;99.90;;;;;;5077742;28;20254;-79
2021/04/29 09:26:20;;;;;;;6.03;5.10;;;12.60;99.90;;;;;;5076637;28;20200;-79
2021/04/29 09:28:58;;;;;;;6.60;5.50;;;12.70;99.90;;;;;;5078256;28;20211;-79
2021/04/29 09:31:26;;;;;;;5.50;5.00;;;12.70;99.90;;;;;;5078428;28;20177;-79
2021/04/29 09:33:54;;;;;;;8.27;5.70;;;12.80;99.90;;;;;;5085592;28;20173;-79
2021/04/29 09:36:33;;;;;;;8.97;5.40;;;12.90;99.90;;;;;;5084729;28;20177;-80
2021/04/29 09:39:04;;;;;;;5.77;5.10;;;13.00;99.90;;;;;;5084268;28;20252;-79
2021/04/29 09:41:36;;;;;;;7.70;5.40;;;13.00;99.90;;;;;;5085104;28;20248;-79
2021/04/29 09:44:11;;;;;;;5.70;4.93;;;13.10;99.90;;;;;;5084428;28;20260;-79
2021/04/29 09:46:39;;;;;;;6.13;5.60;;;13.20;99.90;;;;;;5085031;28;20197;-79
2021/04/29 09:49:29;;;;;;;5.30;4.80;;;13.30;99.90;;;;;;5083565;28;20169;-79
2021/04/29 09:52:00;;;;;;;6.57;5.60;;;13.40;99.90;;;;;;5082983;28;20176;-79
2021/04/29 09:54:34;;;;;;;8.33;6.07;;;13.50;99.90;;;;;;5084789;28;20184;-79
2021/04/29 09:57:14;;;;;;;6.50;5.57;;;13.60;99.90;;;;;;5084603;28;20226;-78
2021/04/29 09:59:42;;;;;;;7.00;6.30;;;13.70;99.90;;;;;;5080918;28;20196;-78
2021/04/29 10:02:10;;;;;;;8.20;6.47;;;13.70;99.90;;;;;;5082529;28;20175;-78
2021/04/29 10:04:38;;;;;;;8.63;6.07;;;13.80;99.90;;;;;;5080910;28;20165;-79
2021/04/29 10:07:04;;;;;;;6.03;5.53;;;13.80;99.90;;;;;;5065935;28;20752;-78
2021/04/29 10:09:34;;;;;;;11.93;7.37;;;13.80;99.90;;;;;;5071912;28;20205;-78
2021/04/29 10:12:11;;;;;;;8.80;6.03;;;13.80;99.90;;;;;;5072888;28;20180;-78
2021/04/29 10:14:40;;;;;;;6.20;5.57;;;13.80;99.90;;;;;;5076146;28;20240;-79
2021/04/29 10:17:07;;;;;;;14.20;8.87;;;13.80;99.90;;;;;;5073973;28;20289;-79
2021/04/29 10:19:38;;;;;;;16.67;9.97;;;13.90;99.90;;;;;;5076715;28;20184;-79
2021/04/29 10:22:05;;;;;;;7.53;6.50;;;13.80;99.90;;;;;;5070740;28;20177;-79
2021/04/29 10:24:31;;;;;;;6.93;6.33;;;14.00;99.90;;;;;;5077606;28;20179;-78
2021/04/29 10:27:01;;;;;;;7.47;5.90;;;14.20;99.90;;;;;;5077194;28;20222;-79
2021/04/29 10:29:27;;;;;;;6.80;6.20;;;14.30;99.90;;;;;;5076517;28;20223;-78
2021/04/29 10:31:58;;;;;;;6.90;6.20;;;14.40;99.90;;;;;;5078084;28;20180;-78
2021/04/29 10:34:36;;;;;;;16.90;6.30;;;14.30;99.90;;;;;;5075486;28;20180;-77
2021/04/29 10:37:23;;;;;;;7.93;6.90;;;14.40;99.90;;;;;;5072504;28;20319;-79
2021/04/29 10:40:02;;;;;;;7.40;6.30;;;14.60;99.90;;;;;;5067847;28;20544;-79
2021/04/29 10:42:30;;;;;;;9.70;6.50;;;14.90;99.90;;;;;;5071742;28;20271;-78
2021/04/29 10:45:10;;;;;;;8.53;6.03;;;14.90;99.90;;;;;;5074105;28;20197;-79
2021/04/29 10:47:38;;;;;;;6.63;5.97;;;14.90;99.90;;;;;;5070033;28;20203;-79
2021/04/29 10:50:14;;;;;;;6.63;6.03;;;15.10;99.90;;;;;;5075571;28;20591;-78
2021/04/29 10:52:53;;;;;;;7.97;5.60;;;15.20;99.90;;;;;;5068053;28;20260;-79
2021/04/29 10:55:28;;;;;;;6.97;6.07;;;15.30;99.90;;;;;;5070622;28;20240;-78
2021/04/29 10:57:55;;;;;;;6.33;5.73;;;15.10;99.90;;;;;;5070584;28;20215;-79
2021/04/29 11:00:21;;;;;;;7.00;6.40;;;15.10;99.90;;;;;;5065271;28;20213;-79
2021/04/29 11:03:26;;;;;;;7.03;5.67;;;15.10;99.90;;;;;;5070549;28;20229;-78
2021/04/29 11:06:03;;;;;;;6.90;6.30;;;14.90;99.90;;;;;;5080576;22;20228;-78
2021/04/29 11:08:34;;;;;;;6.53;6.00;;;14.80;99.90;;;;;;5051947;28;20208;-77
2021/04/29 11:11:00;;;;;;;6.43;5.83;;;14.70;99.90;;;;;;5055265;28;20215;-76
2021/04/29 11:13:26;;;;;;;8.90;6.03;;;14.70;99.90;;;;;;5052025;28;20170;-78
2021/04/29 11:15:57;;;;;;;6.73;6.23;;;14.80;99.90;;;;;;5046580;28;20698;-77
2021/04/29 11:18:26;;;;;;;6.80;6.20;;;14.60;99.90;;;;;;5041404;28;20186;-77
2021/04/29 11:20:56;;;;;;;6.90;6.30;;;14.60;99.90;;;;;;5030240;28;20716;-77
2021/04/29 11:23:42;;;;;;;9.90;7.20;;;14.60;99.90;;;;;;5033940;28;20189;-77
2021/04/29 11:26:10;;;;;;;10.30;7.13;;;14.50;99.90;;;;;;5044305;28;20204;-78
2021/04/29 11:28:37;;;;;;;8.20;6.07;;;14.50;99.90;;;;;;5035635;28;20189;-77
2021/04/29 11:31:04;;;;;;;7.47;6.73;;;14.50;99.90;;;;;;5048395;28;20656;-77
2021/04/29 11:33:35;;;;;;;9.23;6.77;;;14.50;99.90;;;;;;5042027;28;20265;-77
2021/04/29 11:36:21;;;;;;;7.70;6.40;;;14.50;99.90;;;;;;5047008;28;20298;-76
2021/04/29 11:38:56;;;;;;;7.83;6.27;;;14.50;99.90;;;;;;5040636;28;20180;-77
2021/04/29 11:41:24;;;;;;;7.60;6.90;;;14.50;99.90;;;;;;5037951;28;20179;-77
2021/04/29 11:43:58;;;;;;;7.23;6.63;;;14.60;99.90;;;;;;5041965;28;20170;-77
2021/04/29 11:46:24;;;;;;;8.30;6.27;;;14.50;99.90;;;;;;5044436;28;20212;-77
2021/04/29 11:49:07;;;;;;;12.67;6.40;;;14.40;99.90;;;;;;5047253;28;20169;-79
2021/04/29 11:51:42;;;;;;;7.10;6.40;;;14.50;99.90;;;;;;5042391;28;20182;-78
2021/04/29 11:54:09;;;;;;;7.57;6.80;;;14.60;99.90;;;;;;5036324;28;20185;-78
2021/04/29 11:56:40;;;;;;;10.57;7.47;;;14.60;99.90;;;;;;5046472;28;20201;-78
2021/04/29 11:59:07;;;;;;;7.57;6.97;;;14.70;99.90;;;;;;5036602;28;20189;-79
2021/04/29 12:01:33;;;;;;;10.20;7.17;;;14.80;99.90;;;;;;5042234;28;20180;-78
2021/04/29 12:03:59;;;;;;;9.43;7.97;;;14.70;99.90;;;;;;5035335;28;20186;-78
2021/04/29 12:06:25;;;;;;;10.73;8.17;;;14.60;99.90;;;;;;5034150;28;20214;-78
2021/04/29 12:08:51;;;;;;;7.57;6.87;;;14.60;99.90;;;;;;5034683;28;20182;-78
2021/04/29 12:11:16;;;;;;;16.13;10.03;;;14.60;99.90;;;;;;5039410;28;20226;-77
2021/04/29 12:13:46;;;;;;;10.30;7.70;;;14.40;99.90;;;;;;5042108;28;20174;-77
2021/04/29 12:16:17;;;;;;;17.00;10.20;;;14.40;99.90;;;;;;5035755;28;20208;-77
2021/04/29 12:18:48;;;;;;;26.67;14.23;;;14.50;99.90;;;;;;5033904;28;20197;-78
2021/04/29 12:21:15;;;;;;;20.20;11.10;;;14.50;99.90;;;;;;5047414;28;20173;-78
2021/04/29 12:23:42;;;;;;;12.40;9.97;;;14.50;99.90;;;;;;5045391;28;20182;-78
2021/04/29 12:26:10;;;;;;;25.80;13.30;;;14.50;99.90;;;;;;5046917;28;20580;-78
2021/04/29 12:28:42;;;;;;;8.97;8.10;;;14.50;99.90;;;;;;5042324;28;20176;-77
2021/04/29 12:31:15;;;;;;;12.00;8.80;;;14.40;99.90;;;;;;5048382;28;20190;-77
2021/04/29 12:34:14;;;;;;;8.80;7.93;;;14.50;99.90;;;;;;5049105;28;20219;-77
2021/04/29 12:37:01;;;;;;;18.43;10.67;;;14.40;99.90;;;;;;5037010;28;20238;-78
2021/04/29 12:39:29;;;;;;;12.90;10.47;;;14.30;99.90;;;;;;5045831;28;20186;-78
2021/04/29 12:42:05;;;;;;;18.37;12.07;;;14.30;99.90;;;;;;5054180;28;20177;-77
2021/04/29 12:44:38;;;;;;;20.33;12.97;;;14.20;99.90;;;;;;5054608;28;20184;-77
2021/04/29 12:47:04;;;;;;;17.83;10.47;;;14.30;99.90;;;;;;5044470;28;20585;-76
2021/04/29 12:49:30;;;;;;;12.20;9.20;;;14.30;99.90;;;;;;5042901;28;20189;-76
2021/04/29 12:52:25;;;;;;;8.67;7.77;;;14.40;99.90;;;;;;5047660;28;20254;-78